Time;durP1;ratioP1;P1;durP2;ratioP2;P2;SDS_P1;SDS_P2;PMS_P1;PMS_P2;Temp;Humidity;BMP_temperature;BMP_pressure;BME280_temperature;BME280_humidity;BME280_pressure;Samples;Min_cycle;Max_cycle;Signal;HPM_P1;HPM_P2
2023/08/26 00:01:55;;;;;;;;;;;24.00;72.30;;;;;;5035064;28;19924;-73
2023/08/26 00:04:21;;;;;;;;;;;24.00;72.50;;;;;;5034609;28;19926;-73
2023/08/26 00:06:47;;;;;;;;;;;24.00;72.60;;;;;;5025928;28;19920;-73
2023/08/26 00:09:12;;;;;;;;;;;24.10;72.60;;;;;;5015217;28;19913;-73
2023/08/26 00:11:38;;;;;;;;;;;24.10;72.70;;;;;;5020210;28;19927;-73
2023/08/26 00:14:04;;;;;;;;;;;24.20;72.60;;;;;;5016043;28;19913;-73
2023/08/26 00:16:29;;;;;;;;;;;24.20;72.60;;;;;;5018253;28;19924;-72
2023/08/26 00:18:59;;;;;;;;;;;24.10;72.30;;;;;;5034660;28;19913;-73
2023/08/26 00:21:25;;;;;;;;;;;24.10;72.20;;;;;;5034595;28;19913;-73
2023/08/26 00:23:50;;;;;;;;;;;24.10;72.10;;;;;;5033663;28;20353;-72
2023/08/26 00:26:18;;;;;;;;;;;24.10;72.10;;;;;;5030941;28;19920;-72
2023/08/26 00:28:44;;;;;;;;;;;24.00;72.00;;;;;;5028905;28;20007;-73
2023/08/26 00:31:09;;;;;;;;;;;24.00;71.90;;;;;;5032135;28;19945;-73
2023/08/26 00:33:35;;;;;;;;;;;23.90;71.80;;;;;;5026702;28;19924;-73
2023/08/26 00:36:00;;;;;;;;;;;23.90;71.80;;;;;;5031922;28;19928;-73
2023/08/26 00:38:27;;;;;;;;;;;23.90;72.00;;;;;;5016467;28;19942;-73
2023/08/26 00:40:53;;;;;;;;;;;23.90;72.20;;;;;;5030920;28;20373;-72
2023/08/26 00:43:19;;;;;;;;;;;23.90;72.30;;;;;;5026830;28;19956;-72
2023/08/26 00:45:46;;;;;;;;;;;23.90;72.40;;;;;;5030916;28;20016;-72
2023/08/26 00:48:12;;;;;;;;;;;23.90;72.40;;;;;;5026795;28;20383;-72
2023/08/26 00:50:38;;;;;;;;;;;23.90;72.30;;;;;;5031007;28;19925;-72
2023/08/26 00:53:04;;;;;;;;;;;23.80;72.30;;;;;;5019745;28;19919;-72
2023/08/26 00:55:30;;;;;;;;;;;23.90;72.40;;;;;;5034079;28;20444;-72
2023/08/26 00:57:56;;;;;;;;;;;23.90;72.40;;;;;;5025416;28;19913;-73
2023/08/26 01:00:22;;;;;;;;;;;23.90;72.40;;;;;;5032224;28;19963;-69
2023/08/26 01:02:47;;;;;;;;;;;23.90;72.20;;;;;;5027350;28;19910;-72
2023/08/26 01:05:13;;;;;;;;;;;23.90;72.20;;;;;;5034300;28;19921;-72
2023/08/26 01:07:38;;;;;;;;;;;23.80;72.20;;;;;;5033811;28;19956;-72
2023/08/26 01:10:04;;;;;;;;;;;23.80;72.20;;;;;;5034184;28;19913;-73
2023/08/26 01:12:39;;;;;;;;;;;23.80;72.20;;;;;;5033642;28;19955;-72
2023/08/26 01:15:06;;;;;;;;;;;23.80;72.20;;;;;;5031941;28;19917;-72
2023/08/26 01:17:33;;;;;;;;;;;23.80;72.30;;;;;;5033099;28;19917;-72
2023/08/26 01:19:59;;;;;;;;;;;23.80;72.10;;;;;;5033324;28;19913;-73
2023/08/26 01:22:26;;;;;;;;;;;23.70;71.90;;;;;;5030475;28;19924;-72
2023/08/26 01:24:52;;;;;;;;;;;23.70;71.60;;;;;;5033903;28;19921;-72
2023/08/26 01:27:18;;;;;;;;;;;23.60;71.60;;;;;;5033831;28;19920;-72
2023/08/26 01:29:43;;;;;;;;;;;23.60;71.70;;;;;;5032188;28;19913;-72
2023/08/26 01:32:18;;;;;;;;;;;23.50;71.80;;;;;;5021180;28;19917;-73
2023/08/26 01:34:47;;;;;;;;;;;23.50;72.00;;;;;;5014090;28;20043;-72
2023/08/26 01:37:14;;;;;;;;;;;23.50;72.10;;;;;;5025895;28;19918;-72
2023/08/26 01:39:40;;;;;;;;;;;23.50;72.10;;;;;;5031424;28;19921;-73
2023/08/26 01:42:07;;;;;;;;;;;23.50;72.10;;;;;;5028331;28;20056;-71
2023/08/26 01:44:33;;;;;;;;;;;23.60;72.20;;;;;;5032835;28;19924;-73
2023/08/26 01:46:58;;;;;;;;;;;23.50;72.20;;;;;;5028680;28;19913;-72
2023/08/26 01:49:23;;;;;;;;;;;23.50;72.20;;;;;;5032770;28;20349;-72
2023/08/26 01:51:49;;;;;;;;;;;23.50;72.20;;;;;;5023293;28;20373;-71
2023/08/26 01:54:14;;;;;;;;;;;23.50;72.20;;;;;;5024569;28;19913;-72
2023/08/26 01:56:40;;;;;;;;;;;23.60;72.10;;;;;;5032850;28;19913;-72
2023/08/26 01:59:05;;;;;;;;;;;23.50;72.00;;;;;;5032867;28;19920;-72
2023/08/26 02:01:33;;;;;;;;;;;23.50;71.70;;;;;;5026799;28;20044;-71
2023/08/26 02:03:59;;;;;;;;;;;23.40;71.30;;;;;;5023823;28;20286;-72
2023/08/26 02:06:25;;;;;;;;;;;23.30;70.80;;;;;;5032891;28;19913;-72
2023/08/26 02:08:52;;;;;;;;;;;23.20;70.60;;;;;;5022936;28;19964;-71
2023/08/26 02:11:17;;;;;;;;;;;23.10;70.60;;;;;;5030441;28;19923;-69
2023/08/26 02:13:43;;;;;;;;;;;23.00;70.80;;;;;;5030793;28;20003;-67
2023/08/26 02:16:08;;;;;;;;;;;22.90;70.90;;;;;;5030152;28;19917;-68
2023/08/26 02:18:33;;;;;;;;;;;22.90;71.20;;;;;;5033053;28;19917;-68
2023/08/26 02:20:59;;;;;;;;;;;22.80;71.20;;;;;;5031565;28;19921;-68
2023/08/26 02:23:25;;;;;;;;;;;22.80;71.20;;;;;;5012514;28;20476;-67
2023/08/26 02:25:50;;;;;;;;;;;22.70;71.00;;;;;;5012465;28;19914;-69
2023/08/26 02:28:16;;;;;;;;;;;22.70;71.10;;;;;;5012959;28;19913;-68
2023/08/26 02:30:42;;;;;;;;;;;22.70;71.20;;;;;;5012691;28;19918;-68
2023/08/26 02:33:08;;;;;;;;;;;22.60;71.60;;;;;;5012332;28;20003;-68
2023/08/26 02:35:35;;;;;;;;;;;22.60;71.90;;;;;;5016482;28;20474;-68
2023/08/26 02:38:00;;;;;;;;;;;22.70;72.10;;;;;;5031557;28;19921;-68
2023/08/26 02:40:26;;;;;;;;;;;22.70;72.20;;;;;;5031845;28;20393;-68
2023/08/26 02:42:51;;;;;;;;;;;22.70;72.40;;;;;;5027356;28;19917;-68
2023/08/26 02:45:17;;;;;;;;;;;22.80;72.50;;;;;;5030067;28;20431;-68
2023/08/26 02:47:42;;;;;;;;;;;22.80;72.50;;;;;;5030090;28;19909;-68
2023/08/26 02:50:08;;;;;;;;;;;22.80;72.50;;;;;;5031548;28;19990;-69
2023/08/26 02:52:34;;;;;;;;;;;22.90;72.40;;;;;;5018065;28;19918;-68
2023/08/26 02:54:59;;;;;;;;;;;22.90;72.40;;;;;;5017755;28;19913;-69
2023/08/26 02:57:25;;;;;;;;;;;22.90;72.20;;;;;;5021795;28;19914;-69
2023/08/26 02:59:50;;;;;;;;;;;22.80;72.20;;;;;;5019712;28;19917;-68
2023/08/26 03:02:16;;;;;;;;;;;22.90;72.20;;;;;;5018675;28;19925;-69
2023/08/26 03:04:42;;;;;;;;;;;22.90;72.20;;;;;;5012195;28;19917;-69
2023/08/26 03:07:07;;;;;;;;;;;22.90;72.30;;;;;;5019856;28;20008;-68
2023/08/26 03:09:33;;;;;;;;;;;22.90;72.30;;;;;;5029561;28;19913;-69
2023/08/26 03:11:58;;;;;;;;;;;22.90;72.20;;;;;;5022283;28;19922;-68
2023/08/26 03:14:24;;;;;;;;;;;22.90;72.10;;;;;;5030013;28;20284;-69
2023/08/26 03:16:49;;;;;;;;;;;22.90;72.10;;;;;;5023328;28;19917;-68
2023/08/26 03:19:15;;;;;;;;;;;22.80;72.10;;;;;;5010871;28;19920;-69
2023/08/26 03:21:40;;;;;;;;;;;22.80;72.20;;;;;;5011889;28;19920;-68
2023/08/26 03:24:06;;;;;;;;;;;22.80;72.20;;;;;;5011766;28;19923;-68
2023/08/26 03:26:31;;;;;;;;;;;22.80;72.20;;;;;;5011486;28;20242;-68
2023/08/26 03:28:57;;;;;;;;;;;22.80;72.20;;;;;;5012202;28;20003;-69
2023/08/26 03:31:22;;;;;;;;;;;22.80;72.20;;;;;;5011647;28;19913;-68
2023/08/26 03:33:47;;;;;;;;;;;22.80;72.10;;;;;;5011919;28;19920;-68
2023/08/26 03:36:13;;;;;;;;;;;22.80;72.10;;;;;;5011359;28;19913;-68
2023/08/26 03:38:38;;;;;;;;;;;22.80;71.90;;;;;;5028523;28;19944;-68
2023/08/26 03:41:04;;;;;;;;;;;22.80;71.90;;;;;;5028249;28;19971;-68
2023/08/26 03:43:30;;;;;;;;;;;22.80;71.80;;;;;;5028919;28;19917;-68
2023/08/26 03:45:55;;;;;;;;;;;22.70;72.00;;;;;;5029965;28;19960;-68
2023/08/26 03:48:21;;;;;;;;;;;22.80;72.00;;;;;;5011720;28;19920;-68
2023/08/26 03:50:55;;;;;;;;;;;22.70;72.10;;;;;;5016343;28;19921;-68
2023/08/26 03:53:20;;;;;;;;;;;22.80;72.20;;;;;;5021809;28;19913;-68
2023/08/26 03:55:46;;;;;;;;;;;22.70;72.10;;;;;;5028958;28;19925;-69
2023/08/26 03:58:12;;;;;;;;;;;22.80;72.20;;;;;;5029664;28;19914;-68
2023/08/26 04:00:40;;;;;;;;;;;22.80;72.10;;;;;;5031142;28;19964;-68
2023/08/26 04:03:06;;;;;;;;;;;22.80;72.20;;;;;;5017272;28;19986;-67
2023/08/26 04:05:32;;;;;;;;;;;22.80;72.20;;;;;;5027606;28;19917;-67
2023/08/26 04:07:58;;;;;;;;;;;22.80;72.20;;;;;;5013279;28;19924;-69
2023/08/26 04:10:23;;;;;;;;;;;22.80;72.10;;;;;;5028383;28;20008;-68
2023/08/26 04:12:49;;;;;;;;;;;22.80;71.90;;;;;;5029640;28;20372;-69
2023/08/26 04:15:14;;;;;;;;;;;22.80;72.10;;;;;;5031012;28;19913;-68
2023/08/26 04:17:40;;;;;;;;;;;22.80;72.20;;;;;;5015609;28;19921;-70
2023/08/26 04:20:06;;;;;;;;;;;22.80;72.20;;;;;;5011407;28;19952;-68
2023/08/26 04:22:32;;;;;;;;;;;22.80;72.10;;;;;;5011111;28;20430;-69
2023/08/26 04:24:57;;;;;;;;;;;22.80;72.00;;;;;;5011080;28;19920;-68
2023/08/26 04:27:22;;;;;;;;;;;22.90;72.00;;;;;;5010593;28;19913;-68
2023/08/26 04:29:48;;;;;;;;;;;22.80;72.00;;;;;;5011292;28;19909;-68
2023/08/26 04:32:13;;;;;;;;;;;22.80;72.00;;;;;;5013456;28;19914;-69
2023/08/26 04:34:39;;;;;;;;;;;22.80;71.70;;;;;;5013680;28;20084;-69
2023/08/26 04:37:04;;;;;;;;;;;22.80;71.80;;;;;;5023414;28;19913;-69
2023/08/26 04:39:30;;;;;;;;;;;22.80;71.70;;;;;;5026543;28;20308;-70
2023/08/26 04:41:55;;;;;;;;;;;22.70;71.70;;;;;;5024844;28;19955;-69
2023/08/26 04:44:20;;;;;;;;;;;22.80;71.70;;;;;;5033559;28;19928;-70
2023/08/26 04:46:46;;;;;;;;;;;22.70;71.90;;;;;;5031400;28;19956;-69
2023/08/26 04:49:11;;;;;;;;;;;22.70;71.80;;;;;;5033469;28;20327;-69
2023/08/26 04:51:37;;;;;;;;;;;22.70;71.80;;;;;;5026431;28;19917;-68
2023/08/26 04:54:03;;;;;;;;;;;22.70;71.80;;;;;;5014680;28;19999;-69
2023/08/26 04:56:28;;;;;;;;;;;22.70;71.70;;;;;;5026237;28;20017;-68
2023/08/26 04:58:54;;;;;;;;;;;22.60;71.70;;;;;;5032329;28;19917;-69
2023/08/26 05:01:20;;;;;;;;;;;22.60;71.70;;;;;;5033055;28;19952;-69
2023/08/26 05:03:45;;;;;;;;;;;22.60;71.70;;;;;;5019419;28;19925;-69
2023/08/26 05:06:11;;;;;;;;;;;22.60;71.70;;;;;;5015201;28;20016;-69
2023/08/26 05:08:36;;;;;;;;;;;22.50;71.30;;;;;;5012896;28;19941;-69
2023/08/26 05:11:03;;;;;;;;;;;22.30;71.10;;;;;;5014301;28;19953;-69
2023/08/26 05:13:28;;;;;;;;;;;22.20;70.60;;;;;;5014216;28;19918;-69
2023/08/26 05:15:54;;;;;;;;;;;22.00;69.70;;;;;;5014101;28;19914;-69
2023/08/26 05:18:21;;;;;;;;;;;21.80;69.40;;;;;;5015113;28;19917;-70
2023/08/26 05:20:46;;;;;;;;;;;21.70;69.30;;;;;;5033959;28;19979;-69
2023/08/26 05:23:12;;;;;;;;;;;21.50;69.50;;;;;;5033485;28;19925;-69
2023/08/26 05:25:38;;;;;;;;;;;21.50;69.20;;;;;;5032561;28;19932;-69
2023/08/26 05:28:06;;;;;;;;;;;21.30;69.30;;;;;;5030581;28;20076;-69
2023/08/26 05:30:32;;;;;;;;;;;21.30;69.10;;;;;;5033708;28;20313;-70
2023/08/26 05:32:58;;;;;;;;;;;21.20;69.20;;;;;;5033532;28;20365;-70
2023/08/26 05:35:23;;;;;;;;;;;21.10;69.20;;;;;;5033644;28;19919;-70
2023/08/26 05:37:49;;;;;;;;;;;21.00;69.10;;;;;;5033267;28;20384;-70
2023/08/26 05:40:15;;;;;;;;;;;21.00;68.90;;;;;;5033489;28;19924;-69
2023/08/26 05:42:41;;;;;;;;;;;21.00;69.60;;;;;;5021167;28;20433;-74
2023/08/26 05:45:07;;;;;;;;;;;21.20;70.90;;;;;;5020964;28;20254;-75
2023/08/26 05:47:32;;;;;;;;;;;21.70;71.60;;;;;;5030934;28;19921;-73
2023/08/26 05:49:58;;;;;;;;;;;21.90;71.10;;;;;;5022881;28;19932;-74
2023/08/26 05:52:24;;;;;;;;;;;22.30;71.40;;;;;;5010027;28;19921;-75
2023/08/26 05:54:49;;;;;;;;;;;22.80;71.70;;;;;;5011557;28;19925;-75
2023/08/26 05:57:15;;;;;;;;;;;23.20;71.60;;;;;;5011189;28;19925;-75
2023/08/26 05:59:40;;;;;;;;;;;23.70;71.60;;;;;;5011073;28;19917;-75
2023/08/26 06:02:06;;;;;;;;;;;24.00;70.80;;;;;;5011754;28;19932;-74
2023/08/26 06:04:31;;;;;;;;;;;24.30;70.20;;;;;;5011521;28;19944;-75
2023/08/26 06:07:00;;;;;;;;;;;24.50;69.70;;;;;;5012898;28;20261;-75
2023/08/26 06:09:26;;;;;;;;;;;24.80;70.00;;;;;;5012806;28;19925;-75
2023/08/26 06:11:54;;;;;;;;;;;25.10;69.80;;;;;;5012817;28;20312;-75
2023/08/26 06:14:19;;;;;;;;;;;25.40;69.00;;;;;;5013018;28;19976;-76
2023/08/26 06:16:47;;;;;;;;;;;25.50;68.50;;;;;;5012742;28;19918;-75
2023/08/26 06:19:12;;;;;;;;;;;25.60;67.40;;;;;;5012895;28;19909;-74
2023/08/26 06:21:38;;;;;;;;;;;25.80;68.50;;;;;;5012997;28;20427;-74
2023/08/26 06:24:03;;;;;;;;;;;26.10;68.20;;;;;;5013459;28;20027;-75
2023/08/26 06:26:29;;;;;;;;;;;26.30;68.80;;;;;;5013086;28;19925;-73
2023/08/26 06:28:54;;;;;;;;;;;26.70;69.10;;;;;;5012980;28;19959;-75
2023/08/26 06:31:20;;;;;;;;;;;27.00;67.80;;;;;;5011064;28;19918;-75
2023/08/26 06:33:46;;;;;;;;;;;27.30;67.80;;;;;;5012842;28;19910;-74
2023/08/26 06:36:12;;;;;;;;;;;27.60;68.30;;;;;;5011653;28;19917;-73
2023/08/26 06:38:37;;;;;;;;;;;27.80;67.10;;;;;;5013224;28;19917;-75
2023/08/26 06:41:03;;;;;;;;;;;27.90;65.80;;;;;;5022173;28;20377;-75
2023/08/26 06:43:29;;;;;;;;;;;28.10;66.50;;;;;;5031858;28;20351;-75
2023/08/26 06:45:54;;;;;;;;;;;28.30;67.50;;;;;;5032656;28;20024;-75
2023/08/26 06:48:20;;;;;;;;;;;28.70;69.10;;;;;;5014396;28;19913;-74
2023/08/26 06:50:48;;;;;;;;;;;29.20;68.90;;;;;;5012303;28;20012;-74
2023/08/26 06:53:20;;;;;;;;;;;29.40;68.20;;;;;;5011325;28;19909;-72
2023/08/26 06:55:46;;;;;;;;;;;29.80;68.80;;;;;;5012537;28;19924;-72
2023/08/26 06:58:11;;;;;;;;;;;30.20;68.40;;;;;;5012198;28;20008;-72
2023/08/26 07:00:37;;;;;;;;;;;30.30;67.80;;;;;;5012194;28;20008;-72
2023/08/26 07:03:02;;;;;;;;;;;30.60;68.50;;;;;;5010537;28;19913;-72
2023/08/26 07:05:28;;;;;;;;;;;30.80;67.40;;;;;;5012211;28;19922;-72
2023/08/26 07:07:53;;;;;;;;;;;31.10;67.40;;;;;;5011801;28;19913;-72
2023/08/26 07:10:19;;;;;;;;;;;31.20;67.40;;;;;;5012271;28;20011;-72
2023/08/26 07:12:44;;;;;;;;;;;31.60;68.50;;;;;;5022453;28;19913;-72
2023/08/26 07:15:10;;;;;;;;;;;31.80;66.30;;;;;;5031786;28;19925;-72
2023/08/26 07:17:35;;;;;;;;;;;32.00;67.00;;;;;;5031636;28;20385;-72
2023/08/26 07:20:01;;;;;;;;;;;32.30;63.60;;;;;;5031782;28;20314;-71
2023/08/26 07:22:26;;;;;;;;;;;32.30;63.90;;;;;;5013638;28;19921;-72
2023/08/26 07:24:52;;;;;;;;;;;32.30;63.50;;;;;;5029610;28;20360;-72
2023/08/26 07:27:18;;;;;;;;;;;32.40;57.90;;;;;;5029587;28;19916;-71
2023/08/26 07:29:43;;;;;;;;;;;32.40;59.10;;;;;;5027097;28;19918;-71
2023/08/26 07:32:09;;;;;;;;;;;32.50;58.20;;;;;;5009329;28;20008;-71
2023/08/26 07:34:34;;;;;;;;;;;32.40;57.90;;;;;;5010925;28;19913;-71
2023/08/26 07:36:59;;;;;;;;;;;32.30;53.20;;;;;;5009919;28;19917;-72
2023/08/26 07:39:25;;;;;;;;;;;32.40;54.50;;;;;;5010053;28;20032;-71
2023/08/26 07:41:51;;;;;;;;;;;32.70;54.90;;;;;;5011173;28;19917;-71
2023/08/26 07:44:16;;;;;;;;;;;32.70;52.20;;;;;;5010042;28;20365;-72
2023/08/26 07:46:41;;;;;;;;;;;32.70;48.90;;;;;;5012366;28;19944;-71
2023/08/26 07:49:07;;;;;;;;;;;32.70;48.00;;;;;;5009672;28;19909;-71
2023/08/26 07:51:32;;;;;;;;;;;32.80;49.90;;;;;;5011350;28;19925;-71
2023/08/26 07:53:58;;;;;;;;;;;33.20;48.40;;;;;;5009694;28;19909;-70
2023/08/26 07:56:23;;;;;;;;;;;33.30;45.10;;;;;;5010983;28;19922;-71
2023/08/26 07:58:49;;;;;;;;;;;33.30;38.70;;;;;;5010949;28;19921;-71
2023/08/26 08:01:14;;;;;;;;;;;33.30;39.20;;;;;;5011820;28;19917;-70
2023/08/26 08:03:40;;;;;;;;;;;33.40;40.80;;;;;;5011712;28;20008;-70
2023/08/26 08:06:07;;;;;;;;;;;33.70;41.90;;;;;;5013441;28;19921;-70
2023/08/26 08:08:32;;;;;;;;;;;34.10;40.10;;;;;;5035293;28;19909;-70
2023/08/26 08:10:57;;;;;;;;;;;34.40;40.70;;;;;;5035809;28;19983;-70
2023/08/26 08:13:23;;;;;;;;;;;34.90;41.60;;;;;;5032277;28;19913;-70
2023/08/26 08:15:49;;;;;;;;;;;35.30;40.00;;;;;;5034432;28;19925;-70
2023/08/26 08:18:14;;;;;;;;;;;35.80;37.80;;;;;;5033439;28;19909;-70
2023/08/26 08:20:40;;;;;;;;;;;35.80;34.00;;;;;;5033818;28;19917;-70
2023/08/26 08:23:05;;;;;;;;;;;35.70;33.40;;;;;;5035084;28;19913;-70
2023/08/26 08:25:31;;;;;;;;;;;35.60;34.00;;;;;;5034223;28;19925;-71
2023/08/26 08:27:56;;;;;;;;;;;35.70;34.60;;;;;;5031723;28;20478;-70
2023/08/26 08:30:22;;;;;;;;;;;36.10;34.70;;;;;;5034737;28;19924;-70
2023/08/26 08:32:48;;;;;;;;;;;36.50;34.20;;;;;;5032662;28;19913;-70
2023/08/26 08:35:14;;;;;;;;;;;36.70;33.90;;;;;;5033513;28;19971;-70
2023/08/26 08:37:39;;;;;;;;;;;36.50;32.70;;;;;;5034918;28;20387;-71
2023/08/26 08:40:05;;;;;;;;;;;36.30;31.90;;;;;;5035050;28;20369;-70
2023/08/26 08:42:32;;;;;;;;;;;35.80;30.50;;;;;;5034582;28;19913;-71
2023/08/26 08:44:58;;;;;;;;;;;35.10;29.50;;;;;;5031565;28;19928;-70
2023/08/26 08:47:23;;;;;;;;;;;34.70;31.40;;;;;;5027225;28;19917;-70
2023/08/26 08:49:49;;;;;;;;;;;34.40;32.50;;;;;;5033291;28;19925;-70
2023/08/26 08:52:15;;;;;;;;;;;34.30;32.90;;;;;;5031692;28;19913;-71
2023/08/26 08:54:44;;;;;;;;;;;34.00;32.80;;;;;;5029157;28;19943;-70
2023/08/26 08:57:11;;;;;;;;;;;33.50;33.30;;;;;;5029351;28;19921;-70
2023/08/26 08:59:38;;;;;;;;;;;33.20;33.10;;;;;;5026831;28;19913;-70
2023/08/26 09:02:04;;;;;;;;;;;32.70;32.00;;;;;;5032854;28;20361;-69
2023/08/26 09:04:29;;;;;;;;;;;32.20;31.70;;;;;;5031377;28;19928;-70
2023/08/26 09:06:55;;;;;;;;;;;32.00;33.00;;;;;;5034136;28;19921;-68
2023/08/26 09:09:21;;;;;;;;;;;32.10;33.50;;;;;;5032686;28;19909;-68
2023/08/26 09:11:46;;;;;;;;;;;32.20;33.50;;;;;;5032952;28;19921;-69
2023/08/26 09:14:12;;;;;;;;;;;32.20;32.60;;;;;;5034080;28;19913;-69
2023/08/26 09:16:38;;;;;;;;;;;31.80;32.30;;;;;;5034142;28;20055;-68
2023/08/26 09:19:07;;;;;;;;;;;31.50;33.20;;;;;;5031644;28;19917;-70
2023/08/26 09:21:33;;;;;;;;;;;31.30;33.50;;;;;;5033633;28;20011;-68
2023/08/26 09:24:00;;;;;;;;;;;31.30;33.50;;;;;;5025196;28;20254;-68
2023/08/26 09:26:26;;;;;;;;;;;31.20;33.60;;;;;;5013320;28;19963;-68
2023/08/26 09:28:51;;;;;;;;;;;31.30;34.10;;;;;;5013663;28;19909;-69
2023/08/26 09:31:17;;;;;;;;;;;31.70;34.60;;;;;;5015810;28;20233;-70
2023/08/26 09:33:50;;;;;;;;;;;32.00;34.10;;;;;;5013684;28;20443;-69
2023/08/26 09:36:16;;;;;;;;;;;32.10;34.10;;;;;;5023161;28;19921;-69
2023/08/26 09:38:47;;;;;;;;;;;32.30;33.70;;;;;;5033492;28;19909;-69
2023/08/26 09:41:19;;;;;;;;;;;32.60;33.70;;;;;;5032885;28;19961;-69
2023/08/26 09:43:45;;;;;;;;;;;32.80;33.00;;;;;;5033050;28;20006;-70
2023/08/26 09:46:20;;;;;;;;;;;33.30;32.90;;;;;;5032917;28;19968;-68
2023/08/26 09:48:46;;;;;;;;;;;33.60;32.30;;;;;;5033174;28;20384;-69
2023/08/26 09:51:22;;;;;;;;;;;33.70;31.90;;;;;;5033635;28;19921;-69
2023/08/26 09:53:48;;;;;;;;;;;33.60;31.70;;;;;;5032554;28;20357;-69
2023/08/26 09:56:15;;;;;;;;;;;33.30;30.30;;;;;;5033310;28;20011;-69
2023/08/26 09:58:41;;;;;;;;;;;32.80;30.60;;;;;;5031641;28;19914;-69
2023/08/26 10:01:06;;;;;;;;;;;32.60;31.60;;;;;;5033253;28;19987;-68
2023/08/26 10:03:33;;;;;;;;;;;32.80;32.20;;;;;;5032724;28;19909;-69
2023/08/26 10:06:00;;;;;;;;;;;33.10;31.50;;;;;;5032602;28;19968;-69
2023/08/26 10:08:31;;;;;;;;;;;33.30;30.50;;;;;;5032082;28;19919;-69
2023/08/26 10:10:57;;;;;;;;;;;33.50;30.30;;;;;;5032936;28;20359;-69
2023/08/26 10:13:24;;;;;;;;;;;33.90;29.80;;;;;;5031741;28;20292;-69
2023/08/26 10:15:51;;;;;;;;;;;34.40;29.80;;;;;;5032014;28;20356;-69
2023/08/26 10:18:35;;;;;;;;;;;34.70;29.40;;;;;;5032739;28;19909;-71
2023/08/26 10:21:03;;;;;;;;;;;34.70;28.50;;;;;;5031730;28;19917;-69
2023/08/26 10:23:29;;;;;;;;;;;34.50;27.60;;;;;;5033584;28;20355;-74
2023/08/26 10:25:56;;;;;;;;;;;34.20;28.00;;;;;;5034167;28;19917;-74
2023/08/26 10:28:22;;;;;;;;;;;34.10;28.10;;;;;;5031358;28;20276;-75
2023/08/26 10:30:48;;;;;;;;;;;34.30;28.90;;;;;;5032460;28;19917;-74
2023/08/26 10:33:13;;;;;;;;;;;34.80;28.80;;;;;;5032203;28;20428;-75
2023/08/26 10:35:39;;;;;;;;;;;35.30;28.00;;;;;;5031505;28;19921;-76
2023/08/26 10:38:12;;;;;;;;;;;35.70;27.70;;;;;;5032611;28;20002;-75
2023/08/26 10:40:37;;;;;;;;;;;36.10;26.70;;;;;;5031056;28;19956;-76
2023/08/26 10:43:04;;;;;;;;;;;36.30;24.30;;;;;;5032427;28;19959;-75
2023/08/26 10:45:30;;;;;;;;;;;36.30;24.50;;;;;;5033095;28;19925;-74
2023/08/26 10:47:55;;;;;;;;;;;36.30;25.10;;;;;;5016565;28;19914;-75
2023/08/26 10:50:22;;;;;;;;;;;36.50;24.80;;;;;;5012925;28;20039;-74
2023/08/26 10:52:53;;;;;;;;;;;36.70;25.20;;;;;;5017231;28;19913;-75
2023/08/26 10:55:20;;;;;;;;;;;36.80;24.90;;;;;;5032592;28;19917;-75
2023/08/26 10:58:04;;;;;;;;;;;36.90;25.10;;;;;;5032472;28;19996;-75
2023/08/26 11:00:29;;;;;;;;;;;36.90;25.00;;;;;;5031799;28;19928;-72
2023/08/26 11:02:55;;;;;;;;;;;37.00;24.70;;;;;;5031375;28;19913;-74
2023/08/26 11:05:21;;;;;;;;;;;37.10;25.00;;;;;;5033599;28;19925;-74
2023/08/26 11:07:46;;;;;;;;;;;37.30;24.40;;;;;;5031119;28;20365;-74
2023/08/26 11:10:28;;;;;;;;;;;37.50;23.80;;;;;;5032309;28;19924;-74
2023/08/26 11:12:53;;;;;;;;;;;37.50;22.80;;;;;;5032412;28;20266;-74
2023/08/26 11:15:19;;;;;;;;;;;37.20;22.90;;;;;;5031880;28;19943;-74
2023/08/26 11:17:45;;;;;;;;;;;37.10;23.30;;;;;;5016000;28;19959;-74
2023/08/26 11:20:10;;;;;;;;;;;37.10;23.10;;;;;;5014330;28;19940;-74
2023/08/26 11:22:36;;;;;;;;;;;37.10;23.30;;;;;;5014640;28;19960;-74
2023/08/26 11:25:01;;;;;;;;;;;37.10;23.40;;;;;;5013191;28;19913;-73
2023/08/26 11:27:27;;;;;;;;;;;37.00;23.60;;;;;;5032631;28;20377;-74
2023/08/26 11:29:52;;;;;;;;;;;37.10;23.50;;;;;;5032359;28;20011;-74
2023/08/26 11:32:17;;;;;;;;;;;37.10;22.90;;;;;;5030646;28;20188;-75
2023/08/26 11:34:43;;;;;;;;;;;36.80;23.10;;;;;;5012849;28;19913;-75
2023/08/26 11:37:09;;;;;;;;;;;36.60;23.30;;;;;;5019600;28;20006;-75
2023/08/26 11:39:35;;;;;;;;;;;36.50;23.80;;;;;;5032127;28;20399;-75
2023/08/26 11:42:20;;;;;;;;;;;36.40;23.40;;;;;;5032494;28;19917;-76
2023/08/26 11:44:46;;;;;;;;;;;36.20;23.30;;;;;;5016021;28;19914;-74
2023/08/26 11:47:12;;;;;;;;;;;35.80;24.00;;;;;;5031866;28;19932;-75
2023/08/26 11:49:38;;;;;;;;;;;35.80;24.40;;;;;;5031329;28;20285;-75
2023/08/26 11:52:04;;;;;;;;;;;35.80;24.70;;;;;;5032215;28;19917;-73
2023/08/26 11:54:29;;;;;;;;;;;35.80;24.60;;;;;;5032156;28;20339;-73
2023/08/26 11:56:55;;;;;;;;;;;35.70;24.70;;;;;;5031275;28;20560;-76
2023/08/26 11:59:21;;;;;;;;;;;35.70;24.70;;;;;;5032051;28;19913;-75
2023/08/26 12:01:47;;;;;;;;;;;35.70;24.90;;;;;;5032784;28;20254;-75
2023/08/26 12:04:13;;;;;;;;;;;35.80;25.20;;;;;;5032128;28;19932;-75
2023/08/26 12:06:39;;;;;;;;;;;36.00;24.90;;;;;;5032171;28;19913;-74
2023/08/26 12:09:05;;;;;;;;;;;36.00;24.90;;;;;;5032201;28;19913;-75
2023/08/26 12:11:38;;;;;;;;;;;35.80;24.80;;;;;;5032579;28;19917;-75
2023/08/26 12:14:20;;;;;;;;;;;35.70;25.00;;;;;;5032605;28;19921;-74
2023/08/26 12:16:46;;;;;;;;;;;35.50;25.00;;;;;;5032358;28;19967;-74
2023/08/26 12:19:18;;;;;;;;;;;35.30;25.00;;;;;;5030074;28;20432;-74
2023/08/26 12:21:48;;;;;;;;;;;35.20;24.90;;;;;;5032287;28;19917;-75
2023/08/26 12:24:13;;;;;;;;;;;35.20;24.80;;;;;;5031370;28;19913;-75
2023/08/26 12:26:39;;;;;;;;;;;35.10;24.80;;;;;;5029638;28;19929;-73
2023/08/26 12:29:05;;;;;;;;;;;34.80;24.80;;;;;;5030976;28;19913;-76
2023/08/26 12:31:34;;;;;;;;;;;34.80;24.90;;;;;;5031813;28;19965;-75
2023/08/26 12:34:00;;;;;;;;;;;34.70;24.70;;;;;;5030813;28;20472;-75
2023/08/26 12:36:25;;;;;;;;;;;34.70;25.10;;;;;;5031442;28;19917;-76
2023/08/26 12:38:51;;;;;;;;;;;34.70;24.80;;;;;;5030939;28;19916;-75
2023/08/26 12:41:16;;;;;;;;;;;34.60;24.90;;;;;;5012186;28;19918;-77
2023/08/26 12:43:41;;;;;;;;;;;34.50;25.30;;;;;;5025333;28;20399;-77
2023/08/26 12:46:07;;;;;;;;;;;34.70;25.90;;;;;;5032455;28;20391;-75
2023/08/26 12:48:33;;;;;;;;;;;34.90;25.70;;;;;;5032082;28;20376;-75
2023/08/26 12:50:58;;;;;;;;;;;35.00;25.10;;;;;;5031345;28;19925;-75
2023/08/26 12:53:23;;;;;;;;;;;34.80;25.00;;;;;;5033277;28;19980;-76
2023/08/26 12:55:49;;;;;;;;;;;34.60;25.20;;;;;;5034963;28;19925;-75
2023/08/26 12:58:22;;;;;;;;;;;34.40;25.60;;;;;;5035133;28;20047;-76
2023/08/26 13:00:47;;;;;;;;;;;34.30;25.90;;;;;;5035248;28;19924;-76
2023/08/26 13:03:13;;;;;;;;;;;34.00;26.00;;;;;;5034760;28;20377;-75
2023/08/26 13:05:38;;;;;;;;;;;33.80;26.00;;;;;;5034488;28;19996;-75
2023/08/26 13:08:04;;;;;;;;;;;33.40;26.20;;;;;;5034347;28;19909;-77
2023/08/26 13:10:29;;;;;;;;;;;33.10;26.50;;;;;;5032834;28;19921;-74
2023/08/26 13:12:55;;;;;;;;;;;32.70;26.70;;;;;;5034163;28;19921;-75
2023/08/26 13:15:20;;;;;;;;;;;32.50;27.00;;;;;;5034296;28;19951;-76
2023/08/26 13:17:46;;;;;;;;;;;32.20;27.50;;;;;;5034374;28;19909;-74
2023/08/26 13:20:11;;;;;;;;;;;32.20;27.80;;;;;;5034572;28;19917;-74
2023/08/26 13:22:37;;;;;;;;;;;32.20;28.10;;;;;;5034242;28;19910;-75
2023/08/26 13:25:02;;;;;;;;;;;32.40;28.00;;;;;;5034324;28;19914;-76
2023/08/26 13:27:29;;;;;;;;;;;32.50;27.80;;;;;;5033468;28;19932;-76
2023/08/26 13:29:55;;;;;;;;;;;32.30;27.50;;;;;;5031813;28;20361;-75
2023/08/26 13:32:20;;;;;;;;;;;32.10;27.60;;;;;;5029568;28;19960;-75
2023/08/26 13:34:46;;;;;;;;;;;31.90;27.80;;;;;;5033664;28;19913;-75
2023/08/26 13:37:11;;;;;;;;;;;31.70;28.20;;;;;;5034071;28;19913;-75
2023/08/26 13:39:37;;;;;;;;;;;31.60;28.70;;;;;;5029403;28;19920;-74
2023/08/26 13:42:02;;;;;;;;;;;31.70;28.80;;;;;;5036305;28;19918;-75
2023/08/26 13:44:28;;;;;;;;;;;31.70;28.90;;;;;;5035053;28;19917;-73
2023/08/26 13:46:53;;;;;;;;;;;31.90;29.00;;;;;;5035362;28;19917;-74
2023/08/26 13:49:19;;;;;;;;;;;32.10;28.90;;;;;;5035824;28;20012;-73
2023/08/26 13:51:44;;;;;;;;;;;32.20;28.60;;;;;;5035429;28;19976;-74
2023/08/26 13:54:10;;;;;;;;;;;32.10;28.40;;;;;;5029766;28;19913;-74
2023/08/26 13:56:35;;;;;;;;;;;32.00;28.40;;;;;;5032584;28;20039;-75
2023/08/26 13:59:01;;;;;;;;;;;32.10;28.40;;;;;;5031557;28;19939;-74
2023/08/26 14:01:27;;;;;;;;;;;32.00;27.80;;;;;;5033415;28;19924;-74
2023/08/26 14:03:54;;;;;;;;;;;31.70;28.20;;;;;;5031856;28;19917;-74
2023/08/26 14:06:19;;;;;;;;;;;31.70;28.80;;;;;;5032485;28;19921;-75
2023/08/26 14:08:45;;;;;;;;;;;31.70;28.90;;;;;;5032420;28;20000;-74
2023/08/26 14:11:10;;;;;;;;;;;31.60;28.90;;;;;;5032138;28;19940;-75